sensor_id;sensor_type;location;lat;lon;timestamp;temperature;humidity
11304;DHT22;5707;49.588;12.148;2022-07-19T00:01:47;13.30;99.90
11304;DHT22;5707;49.588;12.148;2022-07-19T00:04:27;13.20;99.90
11304;DHT22;5707;49.588;12.148;2022-07-19T00:07:06;13.20;99.90
11304;DHT22;5707;49.588;12.148;2022-07-19T00:09:46;13.20;99.90
11304;DHT22;5707;49.588;12.148;2022-07-19T00:12:26;13.20;99.90
11304;DHT22;5707;49.588;12.148;2022-07-19T00:15:07;13.20;99.90
11304;DHT22;5707;49.588;12.148;2022-07-19T00:17:48;13.20;99.90
11304;DHT22;5707;49.588;12.148;2022-07-19T00:20:27;13.20;99.90
11304;DHT22;5707;49.588;12.148;2022-07-19T00:23:07;13.10;99.90
11304;DHT22;5707;49.588;12.148;2022-07-19T00:25:47;13.00;99.90
11304;DHT22;5707;49.588;12.148;2022-07-19T00:28:27;12.90;99.90
11304;DHT22;5707;49.588;12.148;2022-07-19T00:31:07;12.90;99.90
11304;DHT22;5707;49.588;12.148;2022-07-19T00:33:47;12.90;99.90
11304;DHT22;5707;49.588;12.148;2022-07-19T00:36:26;12.90;99.90
11304;DHT22;5707;49.588;12.148;2022-07-19T00:39:06;12.80;99.90
11304;DHT22;5707;49.588;12.148;2022-07-19T00:41:46;12.70;99.90
11304;DHT22;5707;49.588;12.148;2022-07-19T00:44:26;12.60;99.90
11304;DHT22;5707;49.588;12.148;2022-07-19T00:47:06;12.60;99.90
11304;DHT22;5707;49.588;12.148;2022-07-19T00:49:45;12.50;99.90
11304;DHT22;5707;49.588;12.148;2022-07-19T00:52:25;12.60;99.90
11304;DHT22;5707;49.588;12.148;2022-07-19T00:55:09;12.70;99.90
11304;DHT22;5707;49.588;12.148;2022-07-19T00:57:50;12.60;99.90
11304;DHT22;5707;49.588;12.148;2022-07-19T01:00:31;12.60;99.90
11304;DHT22;5707;49.588;12.148;2022-07-19T01:03:11;12.50;99.90
11304;DHT22;5707;49.588;12.148;2022-07-19T01:05:52;12.50;99.90
11304;DHT22;5707;49.588;12.148;2022-07-19T01:08:32;12.40;99.90
11304;DHT22;5707;49.588;12.148;2022-07-19T01:11:12;12.30;99.90
11304;DHT22;5707;49.588;12.148;2022-07-19T01:13:52;12.30;99.90
11304;DHT22;5707;49.588;12.148;2022-07-19T01:16:32;12.20;99.90
11304;DHT22;5707;49.588;12.148;2022-07-19T01:19:11;12.10;99.90
11304;DHT22;5707;49.588;12.148;2022-07-19T01:21:51;12.10;99.90
11304;DHT22;5707;49.588;12.148;2022-07-19T01:24:31;12.10;99.90
11304;DHT22;5707;49.588;12.148;2022-07-19T01:27:11;12.00;99.90
11304;DHT22;5707;49.588;12.148;2022-07-19T01:29:51;12.00;99.90
11304;DHT22;5707;49.588;12.148;2022-07-19T01:32:31;12.00;99.90
11304;DHT22;5707;49.588;12.148;2022-07-19T01:35:10;11.90;99.90
11304;DHT22;5707;49.588;12.148;2022-07-19T01:37:50;11.80;99.90
11304;DHT22;5707;49.588;12.148;2022-07-19T01:40:30;11.70;99.90
11304;DHT22;5707;49.588;12.148;2022-07-19T01:43:12;11.70;99.90
11304;DHT22;5707;49.588;12.148;2022-07-19T01:45:51;11.70;99.90
11304;DHT22;5707;49.588;12.148;2022-07-19T01:48:33;11.70;99.90
11304;DHT22;5707;49.588;12.148;2022-07-19T01:51:13;11.70;99.90
11304;DHT22;5707;49.588;12.148;2022-07-19T01:53:52;11.60;99.90
11304;DHT22;5707;49.588;12.148;2022-07-19T01:56:32;11.50;99.90
11304;DHT22;5707;49.588;12.148;2022-07-19T01:59:12;11.40;99.90
11304;DHT22;5707;49.588;12.148;2022-07-19T02:01:52;11.40;99.90
11304;DHT22;5707;49.588;12.148;2022-07-19T02:04:32;11.40;99.90
11304;DHT22;5707;49.588;12.148;2022-07-19T02:07:12;11.40;99.90
11304;DHT22;5707;49.588;12.148;2022-07-19T02:09:51;11.30;99.90
11304;DHT22;5707;49.588;12.148;2022-07-19T02:12:31;11.30;99.90
11304;DHT22;5707;49.588;12.148;2022-07-19T02:15:11;11.30;99.90
11304;DHT22;5707;49.588;12.148;2022-07-19T02:17:51;11.30;99.90
11304;DHT22;5707;49.588;12.148;2022-07-19T02:20:31;11.40;99.90
11304;DHT22;5707;49.588;12.148;2022-07-19T02:23:11;11.40;99.90
11304;DHT22;5707;49.588;12.148;2022-07-19T02:25:50;11.30;99.90
11304;DHT22;5707;49.588;12.148;2022-07-19T02:28:30;11.20;99.90
11304;DHT22;5707;49.588;12.148;2022-07-19T02:31:10;11.20;99.90
11304;DHT22;5707;49.588;12.148;2022-07-19T02:33:50;11.20;99.90
11304;DHT22;5707;49.588;12.148;2022-07-19T02:36:30;11.20;99.90
11304;DHT22;5707;49.588;12.148;2022-07-19T02:39:10;11.30;99.90
11304;DHT22;5707;49.588;12.148;2022-07-19T02:41:49;11.30;99.90
11304;DHT22;5707;49.588;12.148;2022-07-19T02:44:29;11.30;99.90
11304;DHT22;5707;49.588;12.148;2022-07-19T02:47:09;11.20;99.90
11304;DHT22;5707;49.588;12.148;2022-07-19T02:49:49;11.10;99.90
11304;DHT22;5707;49.588;12.148;2022-07-19T02:52:29;11.10;99.90
11304;DHT22;5707;49.588;12.148;2022-07-19T02:55:10;11.10;99.90
11304;DHT22;5707;49.588;12.148;2022-07-19T02:57:50;11.10;99.90
11304;DHT22;5707;49.588;12.148;2022-07-19T03:00:30;11.00;99.90
11304;DHT22;5707;49.588;12.148;2022-07-19T03:03:10;10.90;99.90
11304;DHT22;5707;49.588;12.148;2022-07-19T03:06:07;11.00;99.90
11304;DHT22;5707;49.588;12.148;2022-07-19T03:08:48;11.00;99.90
11304;DHT22;5707;49.588;12.148;2022-07-19T03:11:28;11.00;99.90
11304;DHT22;5707;49.588;12.148;2022-07-19T03:14:08;11.00;99.90
11304;DHT22;5707;49.588;12.148;2022-07-19T03:16:48;11.00;99.90
11304;DHT22;5707;49.588;12.148;2022-07-19T03:19:28;11.00;99.90
11304;DHT22;5707;49.588;12.148;2022-07-19T03:22:08;10.90;99.90
11304;DHT22;5707;49.588;12.148;2022-07-19T03:24:47;11.00;99.90
11304;DHT22;5707;49.588;12.148;2022-07-19T03:27:27;10.90;99.90
11304;DHT22;5707;49.588;12.148;2022-07-19T03:30:08;10.90;99.90
11304;DHT22;5707;49.588;12.148;2022-07-19T03:32:48;11.00;99.90
11304;DHT22;5707;49.588;12.148;2022-07-19T03:35:28;11.10;99.90
11304;DHT22;5707;49.588;12.148;2022-07-19T03:38:08;11.10;99.90
11304;DHT22;5707;49.588;12.148;2022-07-19T03:40:48;11.00;99.90
11304;DHT22;5707;49.588;12.148;2022-07-19T03:43:28;11.10;99.90
11304;DHT22;5707;49.588;12.148;2022-07-19T03:46:08;11.10;99.90
11304;DHT22;5707;49.588;12.148;2022-07-19T03:48:47;11.10;99.90
11304;DHT22;5707;49.588;12.148;2022-07-19T03:51:27;11.10;99.90
11304;DHT22;5707;49.588;12.148;2022-07-19T03:54:07;11.20;99.90
11304;DHT22;5707;49.588;12.148;2022-07-19T03:56:47;11.20;99.90
11304;DHT22;5707;49.588;12.148;2022-07-19T03:59:27;11.30;99.90
11304;DHT22;5707;49.588;12.148;2022-07-19T04:02:07;11.50;99.90
11304;DHT22;5707;49.588;12.148;2022-07-19T04:04:46;11.60;99.90
11304;DHT22;5707;49.588;12.148;2022-07-19T04:07:26;11.70;99.90
11304;DHT22;5707;49.588;12.148;2022-07-19T04:10:07;11.80;99.90
11304;DHT22;5707;49.588;12.148;2022-07-19T04:12:47;11.90;99.90
11304;DHT22;5707;49.588;12.148;2022-07-19T04:15:27;12.00;99.90
11304;DHT22;5707;49.588;12.148;2022-07-19T04:18:07;12.10;99.90
11304;DHT22;5707;49.588;12.148;2022-07-19T04:20:47;12.20;99.90
11304;DHT22;5707;49.588;12.148;2022-07-19T04:23:27;12.50;99.90
11304;DHT22;5707;49.588;12.148;2022-07-19T04:26:07;12.70;99.90
11304;DHT22;5707;49.588;12.148;2022-07-19T04:28:46;13.40;99.90
11304;DHT22;5707;49.588;12.148;2022-07-19T04:31:26;14.70;99.90
11304;DHT22;5707;49.588;12.148;2022-07-19T04:34:06;15.70;99.90
11304;DHT22;5707;49.588;12.148;2022-07-19T04:36:46;16.00;99.90
11304;DHT22;5707;49.588;12.148;2022-07-19T04:39:26;16.50;99.90
11304;DHT22;5707;49.588;12.148;2022-07-19T04:42:06;17.20;99.90
11304;DHT22;5707;49.588;12.148;2022-07-19T04:44:45;17.00;99.90
11304;DHT22;5707;49.588;12.148;2022-07-19T04:47:25;16.70;99.90
11304;DHT22;5707;49.588;12.148;2022-07-19T04:50:06;16.50;99.90
11304;DHT22;5707;49.588;12.148;2022-07-19T04:52:46;16.60;99.90
11304;DHT22;5707;49.588;12.148;2022-07-19T04:55:26;17.70;99.90
11304;DHT22;5707;49.588;12.148;2022-07-19T04:58:06;18.90;99.90
11304;DHT22;5707;49.588;12.148;2022-07-19T05:00:46;20.00;99.90
11304;DHT22;5707;49.588;12.148;2022-07-19T05:03:26;20.80;99.90
11304;DHT22;5707;49.588;12.148;2022-07-19T05:06:06;21.40;99.90
11304;DHT22;5707;49.588;12.148;2022-07-19T05:08:45;21.90;99.60
11304;DHT22;5707;49.588;12.148;2022-07-19T05:11:25;22.20;92.40
11304;DHT22;5707;49.588;12.148;2022-07-19T05:14:05;22.50;89.90
11304;DHT22;5707;49.588;12.148;2022-07-19T05:16:45;22.60;83.90
11304;DHT22;5707;49.588;12.148;2022-07-19T05:19:25;22.70;79.50
11304;DHT22;5707;49.588;12.148;2022-07-19T05:22:05;22.40;79.20
11304;DHT22;5707;49.588;12.148;2022-07-19T05:24:44;22.70;79.20
11304;DHT22;5707;49.588;12.148;2022-07-19T05:27:24;22.90;77.90
11304;DHT22;5707;49.588;12.148;2022-07-19T05:30:05;23.00;74.40
11304;DHT22;5707;49.588;12.148;2022-07-19T05:32:46;23.20;72.50
11304;DHT22;5707;49.588;12.148;2022-07-19T05:35:25;23.50;70.80
11304;DHT22;5707;49.588;12.148;2022-07-19T05:38:05;23.40;70.20
11304;DHT22;5707;49.588;12.148;2022-07-19T05:40:45;22.40;73.80
11304;DHT22;5707;49.588;12.148;2022-07-19T05:43:26;21.40;85.30
11304;DHT22;5707;49.588;12.148;2022-07-19T05:46:06;20.70;98.00
11304;DHT22;5707;49.588;12.148;2022-07-19T05:48:46;20.40;99.90
11304;DHT22;5707;49.588;12.148;2022-07-19T05:51:26;20.00;99.90
11304;DHT22;5707;49.588;12.148;2022-07-19T05:54:06;19.70;99.90
11304;DHT22;5707;49.588;12.148;2022-07-19T05:56:46;19.60;99.90
11304;DHT22;5707;49.588;12.148;2022-07-19T05:59:25;19.60;99.90
11304;DHT22;5707;49.588;12.148;2022-07-19T06:02:05;19.80;99.90
11304;DHT22;5707;49.588;12.148;2022-07-19T06:04:47;20.00;99.90
11304;DHT22;5707;49.588;12.148;2022-07-19T06:07:27;20.20;99.90
11304;DHT22;5707;49.588;12.148;2022-07-19T06:10:07;20.40;99.90
11304;DHT22;5707;49.588;12.148;2022-07-19T06:12:48;20.50;99.90
11304;DHT22;5707;49.588;12.148;2022-07-19T06:15:28;20.70;99.90
11304;DHT22;5707;49.588;12.148;2022-07-19T06:18:07;20.90;99.90
11304;DHT22;5707;49.588;12.148;2022-07-19T06:20:47;21.00;99.90
11304;DHT22;5707;49.588;12.148;2022-07-19T06:23:27;21.20;99.90
11304;DHT22;5707;49.588;12.148;2022-07-19T06:26:07;21.30;99.90
11304;DHT22;5707;49.588;12.148;2022-07-19T06:28:48;21.50;99.90
11304;DHT22;5707;49.588;12.148;2022-07-19T06:31:28;21.50;99.90
11304;DHT22;5707;49.588;12.148;2022-07-19T06:34:08;21.60;98.40
11304;DHT22;5707;49.588;12.148;2022-07-19T06:36:48;21.80;90.70
11304;DHT22;5707;49.588;12.148;2022-07-19T06:39:28;21.90;90.80
11304;DHT22;5707;49.588;12.148;2022-07-19T06:42:07;22.10;93.30
11304;DHT22;5707;49.588;12.148;2022-07-19T06:44:47;22.20;91.10
11304;DHT22;5707;49.588;12.148;2022-07-19T06:47:27;22.30;83.10
11304;DHT22;5707;49.588;12.148;2022-07-19T06:50:07;22.30;80.40
11304;DHT22;5707;49.588;12.148;2022-07-19T06:52:48;22.40;79.90
11304;DHT22;5707;49.588;12.148;2022-07-19T06:55:28;22.50;81.80
11304;DHT22;5707;49.588;12.148;2022-07-19T06:58:08;22.70;79.30
11304;DHT22;5707;49.588;12.148;2022-07-19T07:00:48;22.80;81.60
11304;DHT22;5707;49.588;12.148;2022-07-19T07:03:31;22.90;79.70
11304;DHT22;5707;49.588;12.148;2022-07-19T07:06:11;23.10;73.80
11304;DHT22;5707;49.588;12.148;2022-07-19T07:08:51;23.20;76.10
11304;DHT22;5707;49.588;12.148;2022-07-19T07:11:30;23.40;73.70
11304;DHT22;5707;49.588;12.148;2022-07-19T07:14:10;23.50;69.60
11304;DHT22;5707;49.588;12.148;2022-07-19T07:16:50;23.50;67.90
11304;DHT22;5707;49.588;12.148;2022-07-19T07:19:30;23.60;66.70
11304;DHT22;5707;49.588;12.148;2022-07-19T07:22:10;23.70;64.90
11304;DHT22;5707;49.588;12.148;2022-07-19T07:24:49;23.80;65.90
11304;DHT22;5707;49.588;12.148;2022-07-19T07:27:29;24.00;65.00
11304;DHT22;5707;49.588;12.148;2022-07-19T07:30:10;24.10;63.00
11304;DHT22;5707;49.588;12.148;2022-07-19T07:32:51;24.30;60.60
11304;DHT22;5707;49.588;12.148;2022-07-19T07:35:31;24.40;58.70
11304;DHT22;5707;49.588;12.148;2022-07-19T07:38:10;24.60;58.00
11304;DHT22;5707;49.588;12.148;2022-07-19T07:40:50;24.70;59.50
11304;DHT22;5707;49.588;12.148;2022-07-19T07:43:30;24.80;59.90
11304;DHT22;5707;49.588;12.148;2022-07-19T07:46:10;25.00;57.40
11304;DHT22;5707;49.588;12.148;2022-07-19T07:48:50;25.20;56.90
11304;DHT22;5707;49.588;12.148;2022-07-19T07:51:29;25.40;57.20
11304;DHT22;5707;49.588;12.148;2022-07-19T07:54:09;25.50;52.80
11304;DHT22;5707;49.588;12.148;2022-07-19T07:56:49;25.70;52.80
11304;DHT22;5707;49.588;12.148;2022-07-19T07:59:29;25.90;48.40
11304;DHT22;5707;49.588;12.148;2022-07-19T08:02:09;26.10;48.60
11304;DHT22;5707;49.588;12.148;2022-07-19T08:04:49;26.30;47.70
11304;DHT22;5707;49.588;12.148;2022-07-19T08:07:28;26.50;45.80
11304;DHT22;5707;49.588;12.148;2022-07-19T08:10:09;26.70;45.50
11304;DHT22;5707;49.588;12.148;2022-07-19T08:12:50;26.80;45.70
11304;DHT22;5707;49.588;12.148;2022-07-19T08:15:30;27.00;43.70
11304;DHT22;5707;49.588;12.148;2022-07-19T08:18:09;27.10;43.20
11304;DHT22;5707;49.588;12.148;2022-07-19T08:20:49;27.20;42.70
11304;DHT22;5707;49.588;12.148;2022-07-19T08:23:29;27.30;43.60
11304;DHT22;5707;49.588;12.148;2022-07-19T08:26:09;27.30;42.60
11304;DHT22;5707;49.588;12.148;2022-07-19T08:28:49;27.40;42.00
11304;DHT22;5707;49.588;12.148;2022-07-19T08:31:28;27.50;41.60
11304;DHT22;5707;49.588;12.148;2022-07-19T08:34:08;27.60;41.30
11304;DHT22;5707;49.588;12.148;2022-07-19T08:36:48;27.70;41.30
11304;DHT22;5707;49.588;12.148;2022-07-19T08:39:28;27.70;40.30
11304;DHT22;5707;49.588;12.148;2022-07-19T08:42:08;27.70;40.90
11304;DHT22;5707;49.588;12.148;2022-07-19T08:44:48;27.80;40.90
11304;DHT22;5707;49.588;12.148;2022-07-19T08:47:29;28.00;40.50
11304;DHT22;5707;49.588;12.148;2022-07-19T08:50:10;28.10;39.80
11304;DHT22;5707;49.588;12.148;2022-07-19T08:52:50;28.10;40.30
11304;DHT22;5707;49.588;12.148;2022-07-19T08:55:30;28.20;39.40
11304;DHT22;5707;49.588;12.148;2022-07-19T08:58:10;28.30;40.10
11304;DHT22;5707;49.588;12.148;2022-07-19T09:00:50;28.40;38.70
11304;DHT22;5707;49.588;12.148;2022-07-19T09:03:30;28.50;38.60
11304;DHT22;5707;49.588;12.148;2022-07-19T09:06:09;28.60;37.60
11304;DHT22;5707;49.588;12.148;2022-07-19T09:08:49;28.60;37.40
11304;DHT22;5707;49.588;12.148;2022-07-19T09:11:35;28.60;39.90
11304;DHT22;5707;49.588;12.148;2022-07-19T09:14:16;28.70;36.50
11304;DHT22;5707;49.588;12.148;2022-07-19T09:16:58;28.70;38.90
11304;DHT22;5707;49.588;12.148;2022-07-19T09:19:40;28.80;38.60
11304;DHT22;5707;49.588;12.148;2022-07-19T09:22:21;28.90;36.70
11304;DHT22;5707;49.588;12.148;2022-07-19T09:25:03;28.80;35.80
11304;DHT22;5707;49.588;12.148;2022-07-19T09:27:42;28.80;36.00
11304;DHT22;5707;49.588;12.148;2022-07-19T09:30:38;28.90;36.00
11304;DHT22;5707;49.588;12.148;2022-07-19T09:33:19;28.90;37.00
11304;DHT22;5707;49.588;12.148;2022-07-19T09:36:00;29.00;36.00
11304;DHT22;5707;49.588;12.148;2022-07-19T09:38:41;29.00;34.90
11304;DHT22;5707;49.588;12.148;2022-07-19T09:41:22;29.10;37.00
11304;DHT22;5707;49.588;12.148;2022-07-19T09:44:02;29.40;35.90
11304;DHT22;5707;49.588;12.148;2022-07-19T09:46:44;29.60;35.40
11304;DHT22;5707;49.588;12.148;2022-07-19T09:49:25;29.60;32.40
11304;DHT22;5707;49.588;12.148;2022-07-19T09:52:05;29.50;33.30
11304;DHT22;5707;49.588;12.148;2022-07-19T09:54:48;29.50;33.70
11304;DHT22;5707;49.588;12.148;2022-07-19T09:57:32;29.70;32.90
11304;DHT22;5707;49.588;12.148;2022-07-19T10:00:15;29.80;33.30
11304;DHT22;5707;49.588;12.148;2022-07-19T10:02:56;30.10;32.30
11304;DHT22;5707;49.588;12.148;2022-07-19T10:05:37;30.20;33.70
11304;DHT22;5707;49.588;12.148;2022-07-19T10:08:18;30.30;32.80
11304;DHT22;5707;49.588;12.148;2022-07-19T10:10:58;30.30;31.10
11304;DHT22;5707;49.588;12.148;2022-07-19T10:13:38;30.30;31.00
11304;DHT22;5707;49.588;12.148;2022-07-19T10:16:19;30.20;31.10
11304;DHT22;5707;49.588;12.148;2022-07-19T10:19:03;30.30;31.70
11304;DHT22;5707;49.588;12.148;2022-07-19T10:21:44;30.30;29.30
11304;DHT22;5707;49.588;12.148;2022-07-19T10:24:44;30.20;30.10
11304;DHT22;5707;49.588;12.148;2022-07-19T10:27:38;30.20;31.70
11304;DHT22;5707;49.588;12.148;2022-07-19T10:30:23;30.40;29.80
11304;DHT22;5707;49.588;12.148;2022-07-19T10:33:03;30.40;29.70
11304;DHT22;5707;49.588;12.148;2022-07-19T10:42:17;30.90;30.60
11304;DHT22;5707;49.588;12.148;2022-07-19T10:45:11;30.70;29.40
11304;DHT22;5707;49.588;12.148;2022-07-19T10:48:02;30.70;29.10
11304;DHT22;5707;49.588;12.148;2022-07-19T10:56:34;30.80;30.00
11304;DHT22;5707;49.588;12.148;2022-07-19T10:59:14;31.00;29.20
11304;DHT22;5707;49.588;12.148;2022-07-19T11:01:55;30.90;29.10
11304;DHT22;5707;49.588;12.148;2022-07-19T11:04:36;30.90;29.40
11304;DHT22;5707;49.588;12.148;2022-07-19T11:07:16;30.90;29.80
11304;DHT22;5707;49.588;12.148;2022-07-19T11:09:57;31.00;28.30
11304;DHT22;5707;49.588;12.148;2022-07-19T11:12:38;31.00;28.80
11304;DHT22;5707;49.588;12.148;2022-07-19T11:15:20;31.00;28.80
11304;DHT22;5707;49.588;12.148;2022-07-19T11:18:00;31.20;28.20
11304;DHT22;5707;49.588;12.148;2022-07-19T11:20:41;31.20;29.40
11304;DHT22;5707;49.588;12.148;2022-07-19T11:23:22;31.20;28.60
11304;DHT22;5707;49.588;12.148;2022-07-19T11:26:06;31.20;28.30
11304;DHT22;5707;49.588;12.148;2022-07-19T11:28:47;31.20;29.30
11304;DHT22;5707;49.588;12.148;2022-07-19T11:31:27;31.40;28.50
11304;DHT22;5707;49.588;12.148;2022-07-19T11:34:10;31.40;28.10
11304;DHT22;5707;49.588;12.148;2022-07-19T11:36:57;31.40;29.30
11304;DHT22;5707;49.588;12.148;2022-07-19T11:39:46;31.60;28.70
11304;DHT22;5707;49.588;12.148;2022-07-19T11:42:34;31.80;28.50
11304;DHT22;5707;49.588;12.148;2022-07-19T11:45:15;31.80;28.90
11304;DHT22;5707;49.588;12.148;2022-07-19T11:47:56;31.90;29.30
11304;DHT22;5707;49.588;12.148;2022-07-19T11:50:38;31.90;29.60
11304;DHT22;5707;49.588;12.148;2022-07-19T11:53:20;31.90;28.30
11304;DHT22;5707;49.588;12.148;2022-07-19T11:56:01;31.90;28.90
11304;DHT22;5707;49.588;12.148;2022-07-19T11:58:42;32.00;29.30
11304;DHT22;5707;49.588;12.148;2022-07-19T12:01:25;32.20;28.10
11304;DHT22;5707;49.588;12.148;2022-07-19T12:04:05;32.30;27.90
11304;DHT22;5707;49.588;12.148;2022-07-19T12:06:47;32.50;29.10
11304;DHT22;5707;49.588;12.148;2022-07-19T12:09:28;32.50;28.70
11304;DHT22;5707;49.588;12.148;2022-07-19T12:12:14;32.50;28.40
11304;DHT22;5707;49.588;12.148;2022-07-19T12:15:06;32.50;29.00
11304;DHT22;5707;49.588;12.148;2022-07-19T12:17:55;32.40;27.90
11304;DHT22;5707;49.588;12.148;2022-07-19T12:20:36;32.40;28.10
11304;DHT22;5707;49.588;12.148;2022-07-19T12:23:16;32.50;28.10
11304;DHT22;5707;49.588;12.148;2022-07-19T12:26:03;32.60;28.60
11304;DHT22;5707;49.588;12.148;2022-07-19T12:28:43;32.80;28.40
11304;DHT22;5707;49.588;12.148;2022-07-19T12:31:23;32.90;27.60
11304;DHT22;5707;49.588;12.148;2022-07-19T12:34:03;32.80;27.50
11304;DHT22;5707;49.588;12.148;2022-07-19T12:36:43;32.80;27.70
11304;DHT22;5707;49.588;12.148;2022-07-19T12:39:24;32.80;27.30
11304;DHT22;5707;49.588;12.148;2022-07-19T12:42:05;32.80;27.40
11304;DHT22;5707;49.588;12.148;2022-07-19T12:44:45;32.90;27.80
11304;DHT22;5707;49.588;12.148;2022-07-19T12:47:28;33.00;27.30
11304;DHT22;5707;49.588;12.148;2022-07-19T12:50:09;33.00;27.60
11304;DHT22;5707;49.588;12.148;2022-07-19T12:52:58;33.00;28.10
11304;DHT22;5707;49.588;12.148;2022-07-19T12:55:40;33.10;28.60
11304;DHT22;5707;49.588;12.148;2022-07-19T12:58:22;33.30;27.90
11304;DHT22;5707;49.588;12.148;2022-07-19T13:01:16;33.30;28.10
11304;DHT22;5707;49.588;12.148;2022-07-19T13:03:56;33.30;27.30
11304;DHT22;5707;49.588;12.148;2022-07-19T13:06:36;33.40;26.70
11304;DHT22;5707;49.588;12.148;2022-07-19T13:09:16;33.40;26.70
11304;DHT22;5707;49.588;12.148;2022-07-19T13:11:57;33.30;28.00
11304;DHT22;5707;49.588;12.148;2022-07-19T13:14:37;33.40;27.80
11304;DHT22;5707;49.588;12.148;2022-07-19T13:17:17;33.50;27.10
11304;DHT22;5707;49.588;12.148;2022-07-19T13:19:57;33.30;26.80
11304;DHT22;5707;49.588;12.148;2022-07-19T13:22:37;33.30;27.20
11304;DHT22;5707;49.588;12.148;2022-07-19T13:25:18;33.30;27.40
11304;DHT22;5707;49.588;12.148;2022-07-19T13:27:58;33.40;27.10
11304;DHT22;5707;49.588;12.148;2022-07-19T13:30:38;33.40;28.20
11304;DHT22;5707;49.588;12.148;2022-07-19T13:33:17;33.50;26.60
11304;DHT22;5707;49.588;12.148;2022-07-19T13:35:57;33.50;28.30
11304;DHT22;5707;49.588;12.148;2022-07-19T13:38:37;33.60;26.90
11304;DHT22;5707;49.588;12.148;2022-07-19T13:41:20;33.80;26.40
11304;DHT22;5707;49.588;12.148;2022-07-19T13:44:01;33.80;25.80
11304;DHT22;5707;49.588;12.148;2022-07-19T13:46:41;33.90;26.00
11304;DHT22;5707;49.588;12.148;2022-07-19T13:49:21;34.00;25.60
11304;DHT22;5707;49.588;12.148;2022-07-19T13:52:01;33.90;25.40
11304;DHT22;5707;49.588;12.148;2022-07-19T13:54:41;33.70;25.10
11304;DHT22;5707;49.588;12.148;2022-07-19T13:57:21;33.70;25.30
11304;DHT22;5707;49.588;12.148;2022-07-19T14:00:01;33.70;25.10
11304;DHT22;5707;49.588;12.148;2022-07-19T14:02:50;33.80;26.40
11304;DHT22;5707;49.588;12.148;2022-07-19T14:05:30;33.90;25.10
11304;DHT22;5707;49.588;12.148;2022-07-19T14:08:10;34.00;25.40
11304;DHT22;5707;49.588;12.148;2022-07-19T14:10:49;34.20;25.30
11304;DHT22;5707;49.588;12.148;2022-07-19T14:13:29;34.20;24.70
11304;DHT22;5707;49.588;12.148;2022-07-19T14:16:09;34.30;24.90
11304;DHT22;5707;49.588;12.148;2022-07-19T14:18:49;34.40;24.30
11304;DHT22;5707;49.588;12.148;2022-07-19T14:21:29;34.50;24.70
11304;DHT22;5707;49.588;12.148;2022-07-19T14:24:12;34.50;24.50
11304;DHT22;5707;49.588;12.148;2022-07-19T14:26:51;34.50;24.70
11304;DHT22;5707;49.588;12.148;2022-07-19T14:29:31;34.50;26.40
11304;DHT22;5707;49.588;12.148;2022-07-19T14:32:11;34.60;26.00
11304;DHT22;5707;49.588;12.148;2022-07-19T14:34:51;34.70;26.30
11304;DHT22;5707;49.588;12.148;2022-07-19T14:37:31;34.70;24.30
11304;DHT22;5707;49.588;12.148;2022-07-19T14:40:11;34.70;24.40
11304;DHT22;5707;49.588;12.148;2022-07-19T14:42:52;34.60;24.00
11304;DHT22;5707;49.588;12.148;2022-07-19T14:45:32;34.60;26.80
11304;DHT22;5707;49.588;12.148;2022-07-19T14:48:12;34.70;25.00
11304;DHT22;5707;49.588;12.148;2022-07-19T14:50:52;34.80;24.80
11304;DHT22;5707;49.588;12.148;2022-07-19T14:53:31;34.80;24.00
11304;DHT22;5707;49.588;12.148;2022-07-19T14:56:11;34.90;24.20
11304;DHT22;5707;49.588;12.148;2022-07-19T14:58:51;34.90;24.00
11304;DHT22;5707;49.588;12.148;2022-07-19T15:01:31;34.90;24.80
11304;DHT22;5707;49.588;12.148;2022-07-19T15:04:11;35.00;24.30
11304;DHT22;5707;49.588;12.148;2022-07-19T15:06:51;35.00;24.10
11304;DHT22;5707;49.588;12.148;2022-07-19T15:09:30;35.10;24.90
11304;DHT22;5707;49.588;12.148;2022-07-19T15:12:10;35.10;23.50
11304;DHT22;5707;49.588;12.148;2022-07-19T15:14:50;35.00;23.40
11304;DHT22;5707;49.588;12.148;2022-07-19T15:17:30;35.10;23.10
11304;DHT22;5707;49.588;12.148;2022-07-19T15:20:10;35.10;23.90
11304;DHT22;5707;49.588;12.148;2022-07-19T15:22:51;35.20;23.80
11304;DHT22;5707;49.588;12.148;2022-07-19T15:25:31;35.20;23.70
11304;DHT22;5707;49.588;12.148;2022-07-19T15:28:11;35.20;23.10
11304;DHT22;5707;49.588;12.148;2022-07-19T15:30:51;35.00;23.60
11304;DHT22;5707;49.588;12.148;2022-07-19T15:33:31;35.00;24.00
11304;DHT22;5707;49.588;12.148;2022-07-19T15:36:10;35.20;24.20
11304;DHT22;5707;49.588;12.148;2022-07-19T15:38:50;36.00;23.00
11304;DHT22;5707;49.588;12.148;2022-07-19T15:41:30;37.60;22.40
11304;DHT22;5707;49.588;12.148;2022-07-19T15:44:10;38.90;20.80
11304;DHT22;5707;49.588;12.148;2022-07-19T15:46:50;39.40;20.80
11304;DHT22;5707;49.588;12.148;2022-07-19T15:49:29;40.00;20.60
11304;DHT22;5707;49.588;12.148;2022-07-19T15:52:09;40.40;20.00
11304;DHT22;5707;49.588;12.148;2022-07-19T15:54:49;40.40;19.90
11304;DHT22;5707;49.588;12.148;2022-07-19T15:57:29;40.50;19.40
11304;DHT22;5707;49.588;12.148;2022-07-19T16:00:09;40.00;19.50
11304;DHT22;5707;49.588;12.148;2022-07-19T16:02:50;39.90;20.40
11304;DHT22;5707;49.588;12.148;2022-07-19T16:05:30;40.20;19.30
11304;DHT22;5707;49.588;12.148;2022-07-19T16:08:10;40.00;19.40
11304;DHT22;5707;49.588;12.148;2022-07-19T16:10:50;40.40;18.70
11304;DHT22;5707;49.588;12.148;2022-07-19T16:13:29;40.50;19.00
11304;DHT22;5707;49.588;12.148;2022-07-19T16:16:09;40.90;18.80
11304;DHT22;5707;49.588;12.148;2022-07-19T16:18:49;40.70;18.30
11304;DHT22;5707;49.588;12.148;2022-07-19T16:21:29;41.10;18.60
11304;DHT22;5707;49.588;12.148;2022-07-19T16:24:09;41.50;17.80
11304;DHT22;5707;49.588;12.148;2022-07-19T16:26:49;41.60;17.70
11304;DHT22;5707;49.588;12.148;2022-07-19T16:29:28;41.50;17.90
11304;DHT22;5707;49.588;12.148;2022-07-19T16:32:10;41.90;17.30
11304;DHT22;5707;49.588;12.148;2022-07-19T16:34:50;42.20;17.80
11304;DHT22;5707;49.588;12.148;2022-07-19T16:37:29;42.60;18.00
11304;DHT22;5707;49.588;12.148;2022-07-19T16:40:10;42.40;17.50
11304;DHT22;5707;49.588;12.148;2022-07-19T16:42:51;42.50;18.20
11304;DHT22;5707;49.588;12.148;2022-07-19T16:45:31;42.90;17.30
11304;DHT22;5707;49.588;12.148;2022-07-19T16:48:11;42.70;17.30
11304;DHT22;5707;49.588;12.148;2022-07-19T16:50:52;42.10;17.40
11304;DHT22;5707;49.588;12.148;2022-07-19T16:53:32;41.80;17.30
11304;DHT22;5707;49.588;12.148;2022-07-19T16:56:11;41.40;17.70
11304;DHT22;5707;49.588;12.148;2022-07-19T16:58:51;39.50;18.60
11304;DHT22;5707;49.588;12.148;2022-07-19T17:01:31;37.20;20.00
11304;DHT22;5707;49.588;12.148;2022-07-19T17:04:11;35.60;21.20
11304;DHT22;5707;49.588;12.148;2022-07-19T17:06:51;34.40;22.30